Time;durP1;ratioP1;P1;durP2;ratioP2;P2;SDS_P1;SDS_P2;PMS_P1;PMS_P2;Temp;Humidity;BMP_temperature;BMP_pressure;BME280_temperature;BME280_humidity;BME280_pressure;Samples;Min_cycle;Max_cycle;Signal;HPM_P1;HPM_P2
2024/02/20 00:01:14;;;;;;;11.13;3.53;;;8.50;99.90;;;;;;5160054;27;20433;-76
2024/02/20 00:03:43;;;;;;;13.10;4.57;;;8.50;99.90;;;;;;5178551;27;20440;-76
2024/02/20 00:06:11;;;;;;;12.70;5.00;;;8.40;99.90;;;;;;5178553;27;20562;-76
2024/02/20 00:08:40;;;;;;;11.73;3.70;;;8.40;99.90;;;;;;5178535;27;20435;-76
2024/02/20 00:11:08;;;;;;;11.17;4.80;;;8.50;99.90;;;;;;5178442;27;20438;-76
2024/02/20 00:13:37;;;;;;;11.87;3.90;;;8.40;99.90;;;;;;5178381;27;20436;-76
2024/02/20 00:16:07;;;;;;;17.70;5.43;;;8.40;99.90;;;;;;5159541;27;20488;-76
2024/02/20 00:18:36;;;;;;;12.50;4.30;;;8.40;99.90;;;;;;5178151;27;20567;-76
2024/02/20 00:21:04;;;;;;;10.97;3.80;;;8.40;99.90;;;;;;5159441;27;20440;-76
2024/02/20 00:23:32;;;;;;;17.43;5.10;;;8.40;99.90;;;;;;5159464;27;20505;-76
2024/02/20 00:26:01;;;;;;;16.60;5.57;;;8.40;99.90;;;;;;5178061;27;20488;-76
2024/02/20 00:28:29;;;;;;;15.17;5.03;;;8.40;99.90;;;;;;5177861;27;20499;-76
2024/02/20 00:30:59;;;;;;;14.73;5.47;;;8.40;99.90;;;;;;5178328;27;20444;-76
2024/02/20 00:33:28;;;;;;;20.97;5.37;;;8.40;99.90;;;;;;5177994;27;20526;-76
2024/02/20 00:35:56;;;;;;;17.23;5.83;;;8.40;99.90;;;;;;5159221;27;20496;-76
2024/02/20 00:38:25;;;;;;;14.30;5.40;;;8.40;99.90;;;;;;5159121;27;20465;-76
2024/02/20 00:40:53;;;;;;;14.03;5.20;;;8.40;99.90;;;;;;5178380;27;20482;-76
2024/02/20 00:43:21;;;;;;;12.10;4.27;;;8.40;99.90;;;;;;5159529;27;20456;-76
2024/02/20 00:45:50;;;;;;;14.17;4.33;;;8.30;99.90;;;;;;5177800;27;20471;-76
2024/02/20 00:48:19;;;;;;;13.10;4.43;;;8.30;99.90;;;;;;5177786;27;20433;-75
2024/02/20 00:50:49;;;;;;;12.20;4.30;;;8.30;99.90;;;;;;5158951;27;20439;-76
2024/02/20 00:53:17;;;;;;;16.63;5.30;;;8.30;99.90;;;;;;5158840;27;20488;-76
2024/02/20 00:55:46;;;;;;;17.13;4.97;;;8.30;99.90;;;;;;5177619;27;20458;-76
2024/02/20 00:58:14;;;;;;;12.93;4.60;;;8.30;99.90;;;;;;5158648;27;20520;-76
2024/02/20 01:00:42;;;;;;;16.10;5.20;;;8.30;99.90;;;;;;5177628;27;21017;-76
2024/02/20 01:03:11;;;;;;;15.30;4.93;;;8.30;99.90;;;;;;5177328;27;20470;-76
2024/02/20 01:05:39;;;;;;;17.70;6.13;;;8.30;99.90;;;;;;5158551;27;20819;-76
2024/02/20 01:08:08;;;;;;;19.00;5.83;;;8.30;99.90;;;;;;5177278;27;20504;-76
2024/02/20 01:10:38;;;;;;;18.87;5.57;;;8.30;99.90;;;;;;5158472;27;20452;-76
2024/02/20 01:13:08;;;;;;;20.53;6.33;;;8.30;99.90;;;;;;5177063;27;20921;-76
2024/02/20 01:15:36;;;;;;;19.17;6.07;;;8.30;99.90;;;;;;5158288;27;20539;-76
2024/02/20 01:18:05;;;;;;;22.47;5.87;;;8.30;99.90;;;;;;5176941;27;20512;-76
2024/02/20 01:20:33;;;;;;;17.30;5.20;;;8.30;99.90;;;;;;5176934;27;20445;-76
2024/02/20 01:23:02;;;;;;;28.40;6.70;;;8.30;99.90;;;;;;5176932;27;20440;-76
2024/02/20 01:25:31;;;;;;;24.30;6.70;;;8.30;99.90;;;;;;5158208;27;20437;-76
2024/02/20 01:28:01;;;;;;;21.00;6.30;;;8.20;99.90;;;;;;5158267;27;20512;-76
2024/02/20 01:30:29;;;;;;;21.50;6.40;;;8.20;99.90;;;;;;5158044;27;20453;-76
2024/02/20 01:32:58;;;;;;;22.33;5.83;;;8.20;99.90;;;;;;5176680;27;20479;-76
2024/02/20 01:35:27;;;;;;;21.63;7.57;;;8.30;99.90;;;;;;5157944;27;20463;-76
2024/02/20 01:37:56;;;;;;;19.70;6.27;;;8.20;99.90;;;;;;5157865;27;20484;-76
2024/02/20 01:40:24;;;;;;;32.10;7.67;;;8.20;99.90;;;;;;5176529;27;20431;-76
2024/02/20 01:42:58;;;;;;;20.63;6.50;;;8.30;99.90;;;;;;5157880;27;20510;-76
2024/02/20 01:45:28;;;;;;;20.33;7.60;;;8.20;99.90;;;;;;5176916;27;20469;-76
2024/02/20 01:47:57;;;;;;;24.43;6.10;;;8.20;99.90;;;;;;5157774;27;20443;-76
2024/02/20 01:50:26;;;;;;;28.03;7.90;;;8.20;99.90;;;;;;5176442;27;20557;-76
2024/02/20 01:52:55;;;;;;;31.67;9.13;;;8.20;99.90;;;;;;5157736;27;20999;-76
2024/02/20 01:55:23;;;;;;;23.53;6.77;;;8.20;99.90;;;;;;5176365;27;20439;-76
2024/02/20 01:57:53;;;;;;;30.70;8.17;;;8.20;99.90;;;;;;5157639;27;20835;-76
2024/02/20 02:00:23;;;;;;;24.03;8.00;;;8.20;99.90;;;;;;5175686;27;20813;-76
2024/02/20 02:02:52;;;;;;;21.73;7.47;;;8.20;99.90;;;;;;5157548;27;20444;-75
2024/02/20 02:05:20;;;;;;;22.93;7.70;;;8.10;99.90;;;;;;5157510;27;20439;-76
2024/02/20 02:07:49;;;;;;;33.93;8.33;;;8.20;99.90;;;;;;5157394;27;20978;-76
2024/02/20 02:10:18;;;;;;;27.37;8.23;;;8.10;99.90;;;;;;5157411;27;20452;-76
2024/02/20 02:12:46;;;;;;;24.00;7.40;;;8.10;99.90;;;;;;5157402;27;20530;-76
2024/02/20 02:15:15;;;;;;;21.93;7.63;;;8.10;99.90;;;;;;5157621;27;20878;-76
2024/02/20 02:17:44;;;;;;;28.63;7.43;;;8.10;99.90;;;;;;5157249;27;20507;-76
2024/02/20 02:20:13;;;;;;;25.33;7.30;;;8.10;99.90;;;;;;5157191;27;20563;-76
2024/02/20 02:22:41;;;;;;;21.30;7.60;;;8.00;99.90;;;;;;5157235;27;20444;-76
2024/02/20 02:25:09;;;;;;;33.43;9.37;;;8.00;99.90;;;;;;5157258;27;20452;-76
2024/02/20 02:27:39;;;;;;;25.90;8.20;;;8.00;99.90;;;;;;5157201;27;20897;-76
2024/02/20 02:30:09;;;;;;;25.07;7.83;;;8.10;99.90;;;;;;5157153;27;20440;-75
2024/02/20 02:32:39;;;;;;;26.53;7.70;;;8.00;99.90;;;;;;5157323;27;20444;-76
2024/02/20 02:35:09;;;;;;;28.83;7.27;;;8.00;99.90;;;;;;5157121;27;20492;-76
2024/02/20 02:37:38;;;;;;;26.30;7.50;;;8.00;99.90;;;;;;5175717;27;20528;-76
2024/02/20 02:40:08;;;;;;;22.17;7.90;;;8.00;99.90;;;;;;5156957;27;20464;-76
2024/02/20 02:42:37;;;;;;;21.23;8.20;;;8.00;99.90;;;;;;5176091;27;20512;-76
2024/02/20 02:45:07;;;;;;;24.40;8.43;;;8.00;99.90;;;;;;5157122;27;20443;-76
2024/02/20 02:47:36;;;;;;;26.20;7.63;;;8.00;99.90;;;;;;5157019;27;20471;-76
2024/02/20 02:50:05;;;;;;;30.93;8.20;;;8.00;99.90;;;;;;5157059;27;20443;-76
2024/02/20 02:52:34;;;;;;;26.03;7.57;;;8.00;99.90;;;;;;5156974;27;20524;-76
2024/02/20 02:55:02;;;;;;;33.33;8.57;;;8.00;99.90;;;;;;5156945;27;20449;-76
2024/02/20 02:57:30;;;;;;;25.20;8.10;;;8.00;99.90;;;;;;5157304;27;20971;-77
2024/02/20 02:59:59;;;;;;;37.63;9.07;;;8.00;99.90;;;;;;5157180;27;20888;-77
2024/02/20 03:02:28;;;;;;;29.33;8.70;;;8.00;99.90;;;;;;5156908;27;20469;-76
2024/02/20 03:04:57;;;;;;;32.87;8.83;;;8.00;99.90;;;;;;5156899;27;20440;-76
2024/02/20 03:07:26;;;;;;;28.73;9.67;;;8.00;99.90;;;;;;5175447;27;20473;-76
2024/02/20 03:09:54;;;;;;;27.87;9.33;;;8.00;99.90;;;;;;5156791;27;20449;-76
2024/02/20 03:12:22;;;;;;;35.30;8.77;;;7.90;99.90;;;;;;5175649;27;20424;-76
2024/02/20 03:14:52;;;;;;;32.83;8.90;;;7.90;99.90;;;;;;5161154;27;20466;-76
2024/02/20 03:17:20;;;;;;;28.77;7.50;;;7.90;99.90;;;;;;5179459;27;20455;-76
2024/02/20 03:19:50;;;;;;;29.30;8.27;;;7.90;99.90;;;;;;5179443;27;20491;-76
2024/02/20 03:22:19;;;;;;;25.60;7.93;;;7.90;99.90;;;;;;5179920;27;20788;-76
2024/02/20 03:24:47;;;;;;;24.03;7.63;;;7.90;99.90;;;;;;5179825;27;20515;-75
2024/02/20 03:27:16;;;;;;;26.83;8.10;;;8.00;99.90;;;;;;5160369;27;20555;-76
2024/02/20 03:29:45;;;;;;;24.07;9.27;;;7.90;99.90;;;;;;5160480;27;20493;-76
2024/02/20 03:32:13;;;;;;;34.57;9.00;;;7.90;99.90;;;;;;5160562;27;20852;-76
2024/02/20 03:34:41;;;;;;;31.13;9.23;;;7.90;99.90;;;;;;5179527;27;20443;-76
2024/02/20 03:37:11;;;;;;;29.97;8.70;;;8.00;99.90;;;;;;5160327;27;20464;-76
2024/02/20 03:39:39;;;;;;;24.50;8.30;;;7.90;99.90;;;;;;5178979;27;20490;-76
2024/02/20 03:42:08;;;;;;;25.20;9.00;;;7.90;99.90;;;;;;5160599;27;20835;-76
2024/02/20 03:44:39;;;;;;;29.67;8.60;;;7.90;99.90;;;;;;5178951;27;20873;-76
2024/02/20 03:47:07;;;;;;;31.93;9.90;;;7.90;99.90;;;;;;5160233;27;20478;-76
2024/02/20 03:49:35;;;;;;;28.63;7.67;;;7.90;99.90;;;;;;5178921;27;20487;-76
2024/02/20 03:52:04;;;;;;;35.37;9.40;;;7.90;99.90;;;;;;5178796;27;20538;-76
2024/02/20 03:54:34;;;;;;;27.90;8.67;;;7.90;99.90;;;;;;5160310;27;20458;-76
2024/02/20 03:57:03;;;;;;;36.00;9.53;;;7.90;99.90;;;;;;5178685;27;20554;-76
2024/02/20 03:59:31;;;;;;;32.27;8.67;;;7.90;99.90;;;;;;5159921;27;20895;-76
2024/02/20 04:02:00;;;;;;;31.67;9.30;;;7.90;99.90;;;;;;5178652;27;20767;-76
2024/02/20 04:04:29;;;;;;;27.17;8.60;;;7.90;99.90;;;;;;5159923;27;20476;-76
2024/02/20 04:06:57;;;;;;;29.30;9.20;;;7.90;99.90;;;;;;5178398;27;20448;-76
2024/02/20 04:09:25;;;;;;;33.03;9.20;;;7.90;99.90;;;;;;5159684;27;20493;-76
2024/02/20 04:11:55;;;;;;;32.37;9.40;;;7.90;99.90;;;;;;5159729;27;20444;-76
2024/02/20 04:14:23;;;;;;;29.70;9.73;;;7.90;99.90;;;;;;5178395;27;20999;-76
2024/02/20 04:16:51;;;;;;;31.43;9.37;;;7.90;99.90;;;;;;5159497;27;20473;-76
2024/02/20 04:19:20;;;;;;;30.57;9.50;;;7.90;99.90;;;;;;5178258;27;20774;-76
2024/02/20 04:21:48;;;;;;;36.07;9.97;;;7.90;99.90;;;;;;5178813;27;20819;-76
2024/02/20 04:24:16;;;;;;;34.43;10.00;;;7.90;99.90;;;;;;5177834;27;20835;-74
2024/02/20 04:26:44;;;;;;;33.73;10.97;;;7.90;99.90;;;;;;5159229;27;20810;-74
2024/02/20 04:29:14;;;;;;;40.03;10.50;;;7.90;99.90;;;;;;5159377;27;20444;-75
2024/02/20 04:31:42;;;;;;;34.27;9.70;;;7.80;99.90;;;;;;5178070;27;20432;-75
2024/02/20 04:34:10;;;;;;;34.83;10.57;;;7.80;99.90;;;;;;5159255;27;21013;-75
2024/02/20 04:36:39;;;;;;;34.90;10.83;;;7.80;99.90;;;;;;5159404;27;20793;-75
2024/02/20 04:39:08;;;;;;;30.27;9.80;;;7.80;99.90;;;;;;5178109;27;20859;-75
2024/02/20 04:41:36;;;;;;;29.30;11.10;;;7.80;99.90;;;;;;5159083;27;20560;-76
2024/02/20 04:44:04;;;;;;;34.17;10.70;;;7.70;99.90;;;;;;5177906;27;20424;-76
2024/02/20 04:46:34;;;;;;;34.37;11.40;;;7.70;99.90;;;;;;5158996;27;20472;-76
2024/02/20 04:49:02;;;;;;;42.73;11.17;;;7.70;99.90;;;;;;5158940;27;20501;-76
2024/02/20 04:51:32;;;;;;;33.70;11.30;;;7.70;99.90;;;;;;5158908;27;20809;-76
2024/02/20 04:54:01;;;;;;;34.93;12.03;;;7.70;99.90;;;;;;5177884;27;20861;-76
2024/02/20 04:56:29;;;;;;;37.53;11.17;;;7.70;99.90;;;;;;5158804;27;20492;-75
2024/02/20 04:58:57;;;;;;;43.27;12.03;;;7.70;99.90;;;;;;5177436;27;20433;-75
2024/02/20 05:01:25;;;;;;;32.00;11.27;;;7.70;99.90;;;;;;5158648;27;21095;-75
2024/02/20 05:03:55;;;;;;;37.83;13.10;;;7.70;99.90;;;;;;5177402;27;20950;-76
2024/02/20 05:06:24;;;;;;;40.83;12.90;;;7.70;99.90;;;;;;5158590;27;20462;-76
2024/02/20 05:08:52;;;;;;;38.70;11.57;;;7.70;99.90;;;;;;5158539;27;20435;-76
2024/02/20 05:11:20;;;;;;;29.77;11.80;;;7.70;99.90;;;;;;5158593;27;20494;-76
2024/02/20 05:13:48;;;;;;;37.83;12.47;;;7.70;99.90;;;;;;5158991;27;20447;-77
2024/02/20 05:16:16;;;;;;;31.30;12.63;;;7.70;99.90;;;;;;5158803;27;20464;-77
2024/02/20 05:18:45;;;;;;;35.23;11.50;;;7.70;99.90;;;;;;5177132;27;20443;-76
2024/02/20 05:21:14;;;;;;;32.97;11.60;;;7.60;99.90;;;;;;5176964;27;20824;-76
2024/02/20 05:23:42;;;;;;;38.70;12.37;;;7.60;99.90;;;;;;5158234;27;20873;-76
2024/02/20 05:26:11;;;;;;;29.60;11.40;;;7.60;99.90;;;;;;5158177;27;20857;-76
2024/02/20 05:28:39;;;;;;;29.87;12.77;;;7.60;99.90;;;;;;5158001;27;20448;-76
2024/02/20 05:31:26;;;;;;;33.37;11.57;;;7.60;99.90;;;;;;5158080;27;20440;-76
2024/02/20 05:33:55;;;;;;;30.60;10.83;;;7.60;99.90;;;;;;5158125;27;20457;-76
2024/02/20 05:36:29;;;;;;;30.20;11.70;;;7.50;99.90;;;;;;5157570;27;20544;-76
2024/02/20 05:39:00;;;;;;;30.53;10.30;;;7.50;99.90;;;;;;5158089;27;20448;-76
2024/02/20 05:41:29;;;;;;;27.17;10.10;;;7.50;99.90;;;;;;5176587;27;20500;-76
2024/02/20 05:43:59;;;;;;;31.63;11.37;;;7.50;99.90;;;;;;5157914;27;20451;-76
2024/02/20 05:46:28;;;;;;;32.47;11.60;;;7.50;99.90;;;;;;5157806;27;21017;-76
2024/02/20 05:48:57;;;;;;;26.70;10.13;;;7.50;99.90;;;;;;5157820;27;20481;-76
2024/02/20 05:51:28;;;;;;;31.17;12.00;;;7.50;99.90;;;;;;5176732;27;21017;-76
2024/02/20 05:53:56;;;;;;;33.30;11.20;;;7.50;99.90;;;;;;5176402;27;20505;-76
2024/02/20 05:56:25;;;;;;;25.93;9.63;;;7.50;99.90;;;;;;5176963;27;20484;-76
2024/02/20 05:58:53;;;;;;;29.70;10.60;;;7.50;99.90;;;;;;5157654;27;20468;-76
2024/02/20 06:01:21;;;;;;;25.97;10.90;;;7.50;99.90;;;;;;5176602;27;20644;-75
2024/02/20 06:03:49;;;;;;;21.33;9.67;;;7.50;99.90;;;;;;5176256;27;20435;-76
2024/02/20 06:06:18;;;;;;;34.23;11.10;;;7.40;99.90;;;;;;5176142;27;20460;-76
2024/02/20 06:08:49;;;;;;;32.40;10.63;;;7.40;99.90;;;;;;5176142;27;20864;-76
2024/02/20 06:11:21;;;;;;;30.47;10.43;;;7.40;99.90;;;;;;5176149;27;20415;-76
2024/02/20 06:13:50;;;;;;;32.10;10.93;;;7.40;99.90;;;;;;5157474;27;20441;-76
2024/02/20 06:16:20;;;;;;;33.57;10.80;;;7.40;99.90;;;;;;5175967;27;20465;-76
2024/02/20 06:18:48;;;;;;;33.80;10.47;;;7.40;99.90;;;;;;5157438;27;20538;-76
2024/02/20 06:21:17;;;;;;;28.23;9.67;;;7.40;99.90;;;;;;5176177;27;20553;-76
2024/02/20 06:23:45;;;;;;;23.77;9.20;;;7.40;99.90;;;;;;5157301;27;20464;-76
2024/02/20 06:26:17;;;;;;;27.17;8.90;;;7.30;99.90;;;;;;5157252;27;20553;-76
2024/02/20 06:28:46;;;;;;;33.83;10.20;;;7.30;99.90;;;;;;5157142;27;20458;-76
2024/02/20 06:31:14;;;;;;;26.77;10.27;;;7.30;99.90;;;;;;5175889;27;20939;-76
2024/02/20 06:33:43;;;;;;;32.70;10.40;;;7.30;99.90;;;;;;5157195;27;20439;-76
2024/02/20 06:36:11;;;;;;;30.23;9.80;;;7.30;99.90;;;;;;5175727;27;21010;-75
2024/02/20 06:38:39;;;;;;;33.50;10.23;;;7.30;99.90;;;;;;5157072;27;20546;-76
2024/02/20 06:41:08;;;;;;;30.17;10.70;;;7.20;99.90;;;;;;5156977;27;20830;-76
2024/02/20 06:43:37;;;;;;;29.40;10.40;;;7.20;99.90;;;;;;5175761;27;20433;-76
2024/02/20 06:46:06;;;;;;;30.50;10.80;;;7.20;99.90;;;;;;5156977;27;20478;-76
2024/02/20 06:48:34;;;;;;;34.20;12.73;;;7.20;99.90;;;;;;5180113;27;20439;-76
2024/02/20 06:51:03;;;;;;;28.60;10.90;;;7.20;99.90;;;;;;5161305;27;20443;-76
2024/02/20 06:53:31;;;;;;;32.43;10.50;;;7.20;99.90;;;;;;5179999;27;20430;-75
2024/02/20 06:55:59;;;;;;;31.10;10.00;;;7.20;99.90;;;;;;5161374;27;20477;-76
2024/02/20 06:58:28;;;;;;;28.33;9.80;;;7.10;99.90;;;;;;5179985;27;20479;-76
2024/02/20 07:00:57;;;;;;;30.37;10.10;;;7.10;99.90;;;;;;5179733;27;20433;-76
2024/02/20 07:03:26;;;;;;;30.47;9.57;;;7.20;99.90;;;;;;5180075;27;20435;-75
2024/02/20 07:05:54;;;;;;;30.30;9.20;;;7.10;99.90;;;;;;5160987;27;20463;-76
2024/02/20 07:08:22;;;;;;;30.77;9.77;;;7.10;99.90;;;;;;5179853;27;20431;-76
2024/02/20 07:10:51;;;;;;;29.03;8.97;;;7.10;99.90;;;;;;5179595;27;20528;-76
2024/02/20 07:13:19;;;;;;;28.37;9.70;;;7.10;99.90;;;;;;5160868;27;20433;-76
2024/02/20 07:15:48;;;;;;;30.00;10.07;;;7.10;99.90;;;;;;5179436;27;20467;-76
2024/02/20 07:18:18;;;;;;;25.93;10.03;;;7.10;99.90;;;;;;5160893;27;20447;-76
2024/02/20 07:20:46;;;;;;;24.97;9.43;;;7.10;99.90;;;;;;5179801;27;20419;-76
2024/02/20 07:23:14;;;;;;;25.10;9.20;;;7.10;99.90;;;;;;5179684;27;20467;-76
2024/02/20 07:25:43;;;;;;;30.70;9.17;;;7.20;99.90;;;;;;5160636;27;20470;-76
2024/02/20 07:28:11;;;;;;;28.00;9.90;;;7.20;99.90;;;;;;5160484;27;20543;-76
2024/02/20 07:30:39;;;;;;;22.90;9.00;;;7.20;99.90;;;;;;5160868;27;20442;-76
2024/02/20 07:33:08;;;;;;;27.37;9.47;;;7.20;99.90;;;;;;5160745;27;20451;-77
2024/02/20 07:35:38;;;;;;;30.93;9.10;;;7.20;99.90;;;;;;5160397;27;20443;-76
2024/02/20 07:38:06;;;;;;;29.80;9.10;;;7.20;99.90;;;;;;5179740;27;20965;-76
2024/02/20 07:40:34;;;;;;;21.67;8.00;;;7.20;99.90;;;;;;5160423;27;20503;-76
2024/02/20 07:43:03;;;;;;;24.60;8.07;;;7.30;99.90;;;;;;5178965;27;20472;-76
2024/02/20 07:45:31;;;;;;;21.20;8.60;;;7.30;99.90;;;;;;5160215;27;20448;-76
2024/02/20 07:47:59;;;;;;;28.73;10.13;;;7.30;99.90;;;;;;5160259;27;20511;-76
2024/02/20 07:50:28;;;;;;;21.70;8.20;;;7.30;99.90;;;;;;5160224;27;20443;-76
2024/02/20 07:52:58;;;;;;;29.63;9.23;;;7.30;99.90;;;;;;5160135;27;20534;-76
2024/02/20 07:55:26;;;;;;;28.70;8.80;;;7.30;99.90;;;;;;5178847;27;20528;-76
2024/02/20 07:57:55;;;;;;;27.67;9.57;;;7.30;99.90;;;;;;5159730;27;20471;-76
2024/02/20 08:00:23;;;;;;;27.87;9.50;;;7.30;99.90;;;;;;5178317;27;20432;-76
2024/02/20 08:02:52;;;;;;;24.20;8.70;;;7.30;99.90;;;;;;5178826;27;20549;-76
2024/02/20 08:05:20;;;;;;;24.97;8.57;;;7.30;99.90;;;;;;5178591;27;20483;-76
2024/02/20 08:07:48;;;;;;;26.67;9.20;;;7.30;99.90;;;;;;5159895;27;20853;-76
2024/02/20 08:10:18;;;;;;;24.80;9.17;;;7.40;99.90;;;;;;5159764;27;20447;-76
2024/02/20 08:12:46;;;;;;;25.80;8.70;;;7.40;99.90;;;;;;5159801;27;20439;-76
2024/02/20 08:15:14;;;;;;;25.10;9.33;;;7.40;99.90;;;;;;5159698;27;20956;-76
2024/02/20 08:17:43;;;;;;;32.77;10.03;;;7.40;99.90;;;;;;5178309;27;20507;-76
2024/02/20 08:20:12;;;;;;;18.57;8.70;;;7.40;99.90;;;;;;5178216;27;20525;-76
2024/02/20 08:22:41;;;;;;;27.60;8.90;;;7.40;99.90;;;;;;5159482;27;20469;-76
2024/02/20 08:25:09;;;;;;;23.23;8.50;;;7.50;99.90;;;;;;5178450;27;20786;-77
2024/02/20 08:27:39;;;;;;;21.00;8.93;;;7.50;99.90;;;;;;5178338;27;20472;-77
2024/02/20 08:30:09;;;;;;;23.07;8.47;;;7.50;99.90;;;;;;5159805;27;20840;-77
2024/02/20 08:32:43;;;;;;;25.13;8.87;;;7.60;99.90;;;;;;5159851;27;20933;-77
2024/02/20 08:35:12;;;;;;;22.53;8.27;;;7.60;99.90;;;;;;5159425;27;20488;-76
2024/02/20 08:37:41;;;;;;;22.40;9.67;;;7.60;99.90;;;;;;5159131;27;20470;-76
2024/02/20 08:40:10;;;;;;;29.10;9.90;;;7.60;99.90;;;;;;5177889;27;20443;-76
2024/02/20 08:42:39;;;;;;;23.30;10.50;;;7.60;99.90;;;;;;5159028;27;20467;-76
2024/02/20 08:45:09;;;;;;;21.30;9.57;;;7.60;99.90;;;;;;5159623;27;20489;-76
2024/02/20 08:47:37;;;;;;;27.17;10.50;;;7.60;99.90;;;;;;5177606;27;20498;-76
2024/02/20 08:50:07;;;;;;;29.80;10.10;;;7.60;99.90;;;;;;5177667;27;20433;-76
2024/02/20 08:52:36;;;;;;;27.30;10.17;;;7.60;99.90;;;;;;5159065;27;20453;-76
2024/02/20 08:55:05;;;;;;;30.97;11.43;;;7.70;99.90;;;;;;5159263;27;20894;-76
2024/02/20 08:57:33;;;;;;;26.17;11.80;;;7.70;99.90;;;;;;5158775;27;20469;-76
2024/02/20 09:00:03;;;;;;;28.57;13.40;;;7.70;99.90;;;;;;5177437;27;20462;-76
2024/02/20 09:02:31;;;;;;;32.90;15.20;;;7.70;99.90;;;;;;5177319;27;20566;-76
2024/02/20 09:04:59;;;;;;;31.17;17.17;;;7.70;99.90;;;;;;5158640;27;20480;-76
2024/02/20 09:07:28;;;;;;;39.80;22.43;;;7.80;99.90;;;;;;5158604;27;20468;-77
2024/02/20 09:09:56;;;;;;;39.77;26.10;;;7.80;99.90;;;;;;5157769;27;20444;-76
2024/02/20 09:12:24;;;;;;;39.00;26.77;;;7.80;99.90;;;;;;5158092;27;21024;-76
2024/02/20 09:14:53;;;;;;;48.90;28.43;;;7.80;99.90;;;;;;5158474;27;20443;-76
2024/02/20 09:17:22;;;;;;;41.83;27.27;;;7.80;99.90;;;;;;5158414;27;20525;-76
2024/02/20 09:19:51;;;;;;;48.20;26.57;;;7.90;99.90;;;;;;5158510;27;20536;-76
2024/02/20 09:22:19;;;;;;;47.30;28.40;;;7.90;99.90;;;;;;5158321;27;20539;-75
2024/02/20 09:24:48;;;;;;;41.67;26.63;;;7.90;99.90;;;;;;5176953;27;20493;-75
2024/02/20 09:27:16;;;;;;;37.23;25.23;;;8.00;99.90;;;;;;5158144;27;20462;-75
2024/02/20 09:29:44;;;;;;;45.03;24.53;;;8.00;99.90;;;;;;5158090;27;20439;-75
2024/02/20 09:32:13;;;;;;;30.90;22.60;;;8.10;99.90;;;;;;5158156;27;20455;-75
2024/02/20 09:34:44;;;;;;;43.50;23.80;;;8.10;99.90;;;;;;5177175;27;20432;-76
2024/02/20 09:37:12;;;;;;;41.87;24.03;;;8.10;99.90;;;;;;5158272;27;20465;-77
2024/02/20 09:39:40;;;;;;;34.10;22.80;;;8.20;99.90;;;;;;5177364;27;20439;-77
2024/02/20 09:42:18;;;;;;;40.00;23.87;;;8.20;99.90;;;;;;5158077;27;20451;-75
2024/02/20 09:44:48;;;;;;;38.20;22.47;;;8.20;99.90;;;;;;5158292;27;20440;-77
2024/02/20 09:47:19;;;;;;;40.03;24.50;;;8.30;99.90;;;;;;5158803;27;20535;-76
2024/02/20 09:49:49;;;;;;;36.23;25.97;;;8.30;99.90;;;;;;5160151;27;20447;-76
2024/02/20 09:52:20;;;;;;;39.80;26.67;;;8.40;99.90;;;;;;5158128;27;20439;-77
2024/02/20 09:54:49;;;;;;;37.87;26.60;;;8.40;99.90;;;;;;5158566;27;20455;-77
2024/02/20 09:57:18;;;;;;;36.27;26.77;;;8.40;99.90;;;;;;5158053;27;20475;-77
2024/02/20 09:59:46;;;;;;;35.77;27.10;;;8.50;99.90;;;;;;5157617;27;20483;-77
2024/02/20 10:02:19;;;;;;;45.37;24.23;;;8.50;99.90;;;;;;5157606;27;20957;-76
2024/02/20 10:04:49;;;;;;;39.70;22.67;;;8.60;99.90;;;;;;5176445;27;20565;-76
2024/02/20 10:07:20;;;;;;;36.00;23.00;;;8.60;99.90;;;;;;5157438;27;20463;-77
2024/02/20 10:09:48;;;;;;;32.40;20.93;;;8.60;99.90;;;;;;5157531;27;20994;-77
2024/02/20 10:12:21;;;;;;;31.20;20.10;;;8.70;99.90;;;;;;5157489;27;20497;-77
2024/02/20 10:14:49;;;;;;;36.83;21.10;;;8.70;99.90;;;;;;5157413;27;20493;-77
2024/02/20 10:17:18;;;;;;;32.30;20.83;;;8.80;99.90;;;;;;5157668;27;20468;-77
2024/02/20 10:19:48;;;;;;;29.47;17.80;;;8.80;99.90;;;;;;5157363;27;20445;-76
2024/02/20 10:22:23;;;;;;;31.20;15.73;;;8.90;99.90;;;;;;5156996;27;20864;-76
2024/02/20 10:25:03;;;;;;;30.73;15.33;;;9.00;99.90;;;;;;5157272;27;20460;-76
2024/02/20 10:27:33;;;;;;;25.73;15.67;;;9.00;99.90;;;;;;5157099;27;20513;-76
2024/02/20 10:30:03;;;;;;;29.90;14.90;;;9.00;99.90;;;;;;5175855;27;20917;-76
2024/02/20 10:32:34;;;;;;;29.93;17.80;;;9.10;99.90;;;;;;5157390;27;20440;-77
2024/02/20 10:35:05;;;;;;;37.20;18.73;;;9.20;99.90;;;;;;5157521;27;20950;-76
2024/02/20 10:37:34;;;;;;;29.57;16.77;;;9.20;99.90;;;;;;5157290;27;20991;-76
2024/02/20 10:40:07;;;;;;;24.43;15.57;;;9.30;99.90;;;;;;5175828;27;20468;-76
2024/02/20 10:42:55;;;;;;;24.10;15.50;;;9.30;99.90;;;;;;5175883;27;20462;-76
2024/02/20 10:45:24;;;;;;;26.37;14.07;;;9.30;99.90;;;;;;5157139;27;20560;-76
2024/02/20 10:47:55;;;;;;;25.47;13.93;;;9.40;99.90;;;;;;5157065;27;20476;-76
2024/02/20 10:50:25;;;;;;;23.70;13.83;;;9.40;99.90;;;;;;5157235;27;20485;-76
2024/02/20 10:52:54;;;;;;;25.63;13.90;;;9.40;99.90;;;;;;5157057;27;20518;-77
2024/02/20 10:55:23;;;;;;;29.63;14.83;;;9.50;99.90;;;;;;5156859;27;20444;-76
2024/02/20 10:58:02;;;;;;;23.47;14.30;;;9.50;99.90;;;;;;5157071;27;20859;-76
2024/02/20 11:00:34;;;;;;;27.50;14.50;;;9.50;99.90;;;;;;5157063;27;20444;-76
2024/02/20 11:03:07;;;;;;;28.90;14.60;;;9.50;99.90;;;;;;5156896;27;20433;-76
2024/02/20 11:05:37;;;;;;;27.17;14.57;;;9.60;99.90;;;;;;5156861;27;20548;-76
2024/02/20 11:08:08;;;;;;;28.33;13.33;;;9.60;99.90;;;;;;5156985;27;20433;-76
2024/02/20 11:10:39;;;;;;;21.97;13.60;;;9.60;99.90;;;;;;5156931;27;20429;-76
2024/02/20 11:13:15;;;;;;;19.50;11.40;;;9.60;99.90;;;;;;5156847;27;20445;-76
2024/02/20 11:15:44;;;;;;;22.90;12.10;;;9.70;99.90;;;;;;5175438;27;20444;-75
2024/02/20 11:18:16;;;;;;;19.20;10.80;;;9.70;99.90;;;;;;5156906;27;20432;-76
2024/02/20 11:20:49;;;;;;;25.40;11.53;;;9.70;99.90;;;;;;5156890;27;20462;-76
2024/02/20 11:23:17;;;;;;;21.57;9.70;;;9.80;99.90;;;;;;5156719;27;20449;-76
2024/02/20 11:25:45;;;;;;;23.10;11.17;;;9.90;99.90;;;;;;5175686;27;20543;-76
2024/02/20 11:28:15;;;;;;;19.83;10.80;;;10.00;99.90;;;;;;5156628;27;20524;-76
2024/02/20 11:30:46;;;;;;;19.20;10.90;;;10.00;99.90;;;;;;5156813;27;20460;-75
2024/02/20 11:33:18;;;;;;;26.77;11.43;;;10.10;99.90;;;;;;5156756;27;20448;-77
2024/02/20 11:35:49;;;;;;;19.73;10.27;;;10.10;99.90;;;;;;5160551;27;20489;-76
2024/02/20 11:38:21;;;;;;;20.70;10.20;;;10.20;99.90;;;;;;5179519;27;20412;-76
2024/02/20 11:40:50;;;;;;;17.63;8.80;;;10.20;99.90;;;;;;5179433;27;20465;-76
2024/02/20 11:43:21;;;;;;;19.87;9.63;;;10.30;99.90;;;;;;5160609;27;20478;-77
2024/02/20 11:45:58;;;;;;;24.43;9.60;;;10.30;99.90;;;;;;5160551;27;20488;-75
2024/02/20 11:48:26;;;;;;;26.77;9.40;;;10.30;99.90;;;;;;5160313;27;20444;-75
2024/02/20 11:50:57;;;;;;;20.30;8.47;;;10.30;99.90;;;;;;5160377;27;20444;-77
2024/02/20 11:53:26;;;;;;;19.77;8.37;;;10.40;99.90;;;;;;5179353;27;20436;-75
2024/02/20 11:55:56;;;;;;;15.80;8.30;;;10.40;99.90;;;;;;5160143;27;20479;-76
2024/02/20 11:58:25;;;;;;;21.63;8.33;;;10.40;99.90;;;;;;5160301;27;20440;-75
2024/02/20 12:01:02;;;;;;;21.97;8.80;;;10.40;99.90;;;;;;5160449;27;20460;-77
2024/02/20 12:03:33;;;;;;;12.90;6.93;;;10.40;99.90;;;;;;5159971;27;20527;-77
2024/02/20 12:06:05;;;;;;;18.00;8.70;;;10.40;99.90;;;;;;5178911;27;20539;-76
2024/02/20 12:08:40;;;;;;;19.43;7.83;;;10.50;99.90;;;;;;5160289;27;20451;-77
2024/02/20 12:11:11;;;;;;;17.57;9.07;;;10.50;99.90;;;;;;5178543;27;20408;-77
2024/02/20 12:13:40;;;;;;;22.27;9.70;;;10.50;99.90;;;;;;5178755;27;20769;-77
2024/02/20 12:16:20;;;;;;;20.07;9.63;;;10.50;99.90;;;;;;5159663;27;21052;-77
2024/02/20 12:18:48;;;;;;;16.93;9.60;;;10.50;99.90;;;;;;5159706;27;20444;-76
2024/02/20 12:21:23;;;;;;;22.73;10.73;;;10.50;99.90;;;;;;5159604;27;20444;-76
2024/02/20 12:23:55;;;;;;;22.63;10.90;;;10.50;99.90;;;;;;5178283;27;20493;-76
2024/02/20 12:26:25;;;;;;;19.50;10.30;;;10.50;99.90;;;;;;5178179;27;21032;-76
2024/02/20 12:28:55;;;;;;;25.30;12.43;;;10.50;99.90;;;;;;5159340;27;20441;-76
2024/02/20 12:31:25;;;;;;;20.73;12.27;;;10.50;99.90;;;;;;5159474;27;20476;-76
2024/02/20 12:33:54;;;;;;;22.03;11.80;;;10.50;99.90;;;;;;5177960;27;20928;-76
2024/02/20 12:36:28;;;;;;;25.43;13.20;;;10.50;99.90;;;;;;5159203;27;20472;-76
2024/02/20 12:38:56;;;;;;;22.57;13.33;;;10.50;99.90;;;;;;5159280;27;20500;-76
2024/02/20 12:41:25;;;;;;;22.43;13.20;;;10.50;99.90;;;;;;5159116;27;20555;-76
2024/02/20 12:43:53;;;;;;;19.23;13.70;;;10.60;99.90;;;;;;5159023;27;20440;-76
2024/02/20 12:46:21;;;;;;;28.70;13.63;;;10.50;99.90;;;;;;5158674;27;20500;-76
2024/02/20 12:48:53;;;;;;;23.83;13.57;;;10.50;99.90;;;;;;5158948;27;20453;-76
2024/02/20 12:51:27;;;;;;;21.30;12.77;;;10.50;99.90;;;;;;5178044;27;20417;-77